PWSweather.com
Personal Weather Stations
Station Observations
ILAZIOPO4
Tetto, PomeziaIT 00040

TettoPomeziaIT 00040

Lat: 41.6674809, Lon: 12.5080234

Elevation: 85

Station Type: Davis Vantage Pro2 Plus

http://pomeziameteo.it

High Low Average
Temperature 60.6°F15.9°C 41.8°F5.4°C 51.5°F10.8°C
Dew Point 50.0°F10.0°C 38.5°F3.6°C 44.4°F6.9°C
Winds 16.0 mph 25.7 kmh Calm Calm 3.0 mph WNW4.8 kmh WNW
Wind Gusts 22.0 mph35.4 kmh -- 7.0 mph11.3 kmh
Humidity 90% 53% 78%
Pressure 30.29 in1025.7 mb 30.11 in1019.6 mb -
Precipitation 0.00 in0.0 mm - -
Hour Temp Dew Point Humidity Winds Wind Gusts Pressure Precip Precip Rate Daily Precip Total
12:00 AM 48.1°F8.9°C 44.7°F7.1°C 88% Calm Calm -- 30.29 in1025.7 mb 0.00 in0.0 mm 0.00 in0.0 mm 0.00 in0.0 mm
12:05 AM 48.1°F8.9°C 44.7°F7.1°C 88% Calm Calm 2.0 mph3.2 kmh 30.29 in1025.7 mb 0.00 in0.0 mm 0.00 in0.0 mm 0.00 in0.0 mm
12:10 AM 48.0°F8.9°C 44.6°F7.0°C 88% Calm Calm 4.0 mph6.4 kmh 30.29 in1025.7 mb 0.00 in0.0 mm 0.00 in0.0 mm 0.00 in0.0 mm
12:15 AM 48.1°F8.9°C 44.7°F7.1°C 88% Calm Calm -- 30.29 in1025.7 mb 0.00 in0.0 mm 0.00 in0.0 mm 0.00 in0.0 mm
12:20 AM 48.2°F9.0°C 44.8°F7.1°C 88% Calm Calm -- 30.29 in1025.7 mb 0.00 in0.0 mm 0.00 in0.0 mm 0.00 in0.0 mm
12:25 AM 48.3°F9.1°C 44.6°F7.0°C 87% Calm Calm 1.0 mph1.6 kmh 30.29 in1025.7 mb 0.00 in0.0 mm 0.00 in0.0 mm 0.00 in0.0 mm
12:30 AM 48.4°F9.1°C 44.7°F7.1°C 87% Calm Calm -- 30.29 in1025.7 mb 0.00 in0.0 mm 0.00 in0.0 mm 0.00 in0.0 mm
12:35 AM 48.3°F9.1°C 44.6°F7.0°C 87% Calm Calm -- 30.29 in1025.7 mb 0.00 in0.0 mm 0.00 in0.0 mm 0.00 in0.0 mm
12:40 AM 48.3°F9.1°C 44.6°F7.0°C 87% Calm Calm -- 30.29 in1025.7 mb 0.00 in0.0 mm 0.00 in0.0 mm 0.00 in0.0 mm
12:45 AM 48.2°F9.0°C 44.5°F6.9°C 87% Calm Calm -- 30.28 in1025.4 mb 0.00 in0.0 mm 0.00 in0.0 mm 0.00 in0.0 mm
12:50 AM 48.2°F9.0°C 44.5°F6.9°C 87% Calm Calm -- 30.28 in1025.4 mb 0.00 in0.0 mm 0.00 in0.0 mm 0.00 in0.0 mm
12:55 AM 48.2°F9.0°C 44.5°F6.9°C 87% Calm Calm -- 30.28 in1025.4 mb 0.00 in0.0 mm 0.00 in0.0 mm 0.00 in0.0 mm
01:00 AM 48.2°F9.0°C 44.5°F6.9°C 87% Calm Calm -- 30.28 in1025.4 mb 0.00 in0.0 mm 0.00 in0.0 mm 0.00 in0.0 mm
01:05 AM 48.1°F8.9°C 44.4°F6.9°C 87% Calm Calm -- 30.28 in1025.4 mb 0.00 in0.0 mm 0.00 in0.0 mm 0.00 in0.0 mm
01:10 AM 47.8°F8.8°C 44.1°F6.7°C 87% Calm Calm -- 30.28 in1025.4 mb 0.00 in0.0 mm 0.00 in0.0 mm 0.00 in0.0 mm
01:15 AM 47.8°F8.8°C 44.1°F6.7°C 87% Calm Calm 1.0 mph1.6 kmh 30.28 in1025.4 mb 0.00 in0.0 mm 0.00 in0.0 mm 0.00 in0.0 mm
01:20 AM 47.8°F8.8°C 44.1°F6.7°C 87% Calm Calm -- 30.28 in1025.4 mb 0.00 in0.0 mm 0.00 in0.0 mm 0.00 in0.0 mm
01:25 AM 47.8°F8.8°C 44.4°F6.9°C 88% Calm Calm -- 30.28 in1025.4 mb 0.00 in0.0 mm 0.00 in0.0 mm 0.00 in0.0 mm
01:30 AM 47.7°F8.7°C 44.3°F6.8°C 88% Calm Calm -- 30.28 in1025.4 mb 0.00 in0.0 mm 0.00 in0.0 mm 0.00 in0.0 mm
01:35 AM 47.6°F8.7°C 44.2°F6.8°C 88% Calm Calm -- 30.28 in1025.4 mb 0.00 in0.0 mm 0.00 in0.0 mm 0.00 in0.0 mm
01:40 AM 47.5°F8.6°C 44.1°F6.7°C 88% Calm Calm -- 30.28 in1025.4 mb 0.00 in0.0 mm 0.00 in0.0 mm 0.00 in0.0 mm
01:45 AM 47.5°F8.6°C 44.1°F6.7°C 88% Calm Calm -- 30.28 in1025.4 mb 0.00 in0.0 mm 0.00 in0.0 mm 0.00 in0.0 mm
01:50 AM 47.4°F8.6°C 44.0°F6.7°C 88% Calm Calm -- 30.28 in1025.4 mb 0.00 in0.0 mm 0.00 in0.0 mm 0.00 in0.0 mm
01:55 AM 47.4°F8.6°C 44.0°F6.7°C 88% Calm Calm -- 30.28 in1025.4 mb 0.00 in0.0 mm 0.00 in0.0 mm 0.00 in0.0 mm
02:00 AM 47.2°F8.4°C 44.1°F6.7°C 89% Calm Calm -- 30.28 in1025.4 mb 0.00 in0.0 mm 0.00 in0.0 mm 0.00 in0.0 mm
02:05 AM 47.1°F8.4°C 44.0°F6.7°C 89% Calm Calm -- 30.28 in1025.4 mb 0.00 in0.0 mm 0.00 in0.0 mm 0.00 in0.0 mm
02:10 AM 47.0°F8.3°C 43.9°F6.6°C 89% Calm Calm -- 30.28 in1025.4 mb 0.00 in0.0 mm 0.00 in0.0 mm 0.00 in0.0 mm
02:15 AM 47.1°F8.4°C 44.0°F6.7°C 89% Calm Calm 2.0 mph3.2 kmh 30.27 in1025.1 mb 0.00 in0.0 mm 0.00 in0.0 mm 0.00 in0.0 mm
02:20 AM 47.3°F8.5°C 44.2°F6.8°C 89% 1.0 mph N1.6 kmh N 2.0 mph3.2 kmh 30.27 in1025.1 mb 0.00 in0.0 mm 0.00 in0.0 mm 0.00 in0.0 mm
02:25 AM 47.2°F8.4°C 44.1°F6.7°C 89% Calm Calm 5.0 mph8.0 kmh 30.27 in1025.1 mb 0.00 in0.0 mm 0.00 in0.0 mm 0.00 in0.0 mm
02:30 AM 47.0°F8.3°C 43.9°F6.6°C 89% Calm Calm -- 30.27 in1025.1 mb 0.00 in0.0 mm 0.00 in0.0 mm 0.00 in0.0 mm
02:35 AM 46.8°F8.2°C 43.7°F6.5°C 89% Calm Calm -- 30.27 in1025.1 mb 0.00 in0.0 mm 0.00 in0.0 mm 0.00 in0.0 mm
02:40 AM 46.5°F8.1°C 43.4°F6.3°C 89% Calm Calm -- 30.27 in1025.1 mb 0.00 in0.0 mm 0.00 in0.0 mm 0.00 in0.0 mm
02:45 AM 46.2°F7.9°C 43.4°F6.3°C 90% Calm Calm -- 30.27 in1025.1 mb 0.00 in0.0 mm 0.00 in0.0 mm 0.00 in0.0 mm
02:50 AM 45.9°F7.7°C 43.1°F6.2°C 90% 2.0 mph WNW3.2 kmh WNW 1.0 mph1.6 kmh 30.27 in1025.1 mb 0.00 in0.0 mm 0.00 in0.0 mm 0.00 in0.0 mm
02:55 AM 45.5°F7.5°C 42.7°F5.9°C 90% Calm Calm 7.0 mph11.3 kmh 30.27 in1025.1 mb 0.00 in0.0 mm 0.00 in0.0 mm 0.00 in0.0 mm
03:00 AM 45.2°F7.3°C 42.4°F5.8°C 90% Calm Calm 3.0 mph4.8 kmh 30.27 in1025.1 mb 0.00 in0.0 mm 0.00 in0.0 mm 0.00 in0.0 mm
03:05 AM 45.1°F7.3°C 42.3°F5.7°C 90% Calm Calm 4.0 mph6.4 kmh 30.26 in1024.7 mb 0.00 in0.0 mm 0.00 in0.0 mm 0.00 in0.0 mm
03:10 AM 45.1°F7.3°C 42.3°F5.7°C 90% Calm Calm -- 30.26 in1024.7 mb 0.00 in0.0 mm 0.00 in0.0 mm 0.00 in0.0 mm
03:15 AM 44.9°F7.2°C 42.1°F5.6°C 90% Calm Calm -- 30.26 in1024.7 mb 0.00 in0.0 mm 0.00 in0.0 mm 0.00 in0.0 mm
03:20 AM 44.6°F7.0°C 41.8°F5.4°C 90% Calm Calm 1.0 mph1.6 kmh 30.26 in1024.7 mb 0.00 in0.0 mm 0.00 in0.0 mm 0.00 in0.0 mm
03:25 AM 44.5°F6.9°C 41.7°F5.4°C 90% 2.0 mph NW3.2 kmh NW -- 30.26 in1024.7 mb 0.00 in0.0 mm 0.00 in0.0 mm 0.00 in0.0 mm
03:30 AM 44.3°F6.8°C 41.5°F5.3°C 90% Calm Calm 8.0 mph12.9 kmh 30.26 in1024.7 mb 0.00 in0.0 mm 0.00 in0.0 mm 0.00 in0.0 mm
03:35 AM 44.3°F6.8°C 41.5°F5.3°C 90% Calm Calm 5.0 mph8.0 kmh 30.26 in1024.7 mb 0.00 in0.0 mm 0.00 in0.0 mm 0.00 in0.0 mm
03:40 AM 44.7°F7.1°C 41.9°F5.5°C 90% Calm Calm 2.0 mph3.2 kmh 30.25 in1024.4 mb 0.00 in0.0 mm 0.00 in0.0 mm 0.00 in0.0 mm
03:45 AM 45.0°F7.2°C 42.2°F5.7°C 90% Calm Calm 8.0 mph12.9 kmh 30.25 in1024.4 mb 0.00 in0.0 mm 0.00 in0.0 mm 0.00 in0.0 mm
03:50 AM 45.4°F7.4°C 42.6°F5.9°C 90% Calm Calm 6.0 mph9.7 kmh 30.25 in1024.4 mb 0.00 in0.0 mm 0.00 in0.0 mm 0.00 in0.0 mm
03:55 AM 45.7°F7.6°C 42.6°F5.9°C 89% 2.0 mph NW3.2 kmh NW 8.0 mph12.9 kmh 30.25 in1024.4 mb 0.00 in0.0 mm 0.00 in0.0 mm 0.00 in0.0 mm
04:00 AM 46.0°F7.8°C 42.9°F6.1°C 89% 2.0 mph NW3.2 kmh NW 6.0 mph9.7 kmh 30.25 in1024.4 mb 0.00 in0.0 mm 0.00 in0.0 mm 0.00 in0.0 mm
04:05 AM 46.3°F7.9°C 43.2°F6.2°C 89% Calm Calm -- 30.25 in1024.4 mb 0.00 in0.0 mm 0.00 in0.0 mm 0.00 in0.0 mm
04:10 AM 46.6°F8.1°C 43.5°F6.4°C 89% Calm Calm -- 30.24 in1024.0 mb 0.00 in0.0 mm 0.00 in0.0 mm 0.00 in0.0 mm
04:15 AM 46.8°F8.2°C 43.7°F6.5°C 89% Calm Calm -- 30.24 in1024.0 mb 0.00 in0.0 mm 0.00 in0.0 mm 0.00 in0.0 mm
04:20 AM 47.0°F8.3°C 43.9°F6.6°C 89% Calm Calm -- 30.24 in1024.0 mb 0.00 in0.0 mm 0.00 in0.0 mm 0.00 in0.0 mm
04:25 AM 47.1°F8.4°C 43.7°F6.5°C 88% Calm Calm -- 30.24 in1024.0 mb 0.00 in0.0 mm 0.00 in0.0 mm 0.00 in0.0 mm
04:30 AM 47.2°F8.4°C 43.8°F6.6°C 88% Calm Calm -- 30.24 in1024.0 mb 0.00 in0.0 mm 0.00 in0.0 mm 0.00 in0.0 mm
04:35 AM 47.5°F8.6°C 44.1°F6.7°C 88% Calm Calm -- 30.24 in1024.0 mb 0.00 in0.0 mm 0.00 in0.0 mm 0.00 in0.0 mm
04:40 AM 47.8°F8.8°C 44.4°F6.9°C 88% Calm Calm -- 30.23 in1023.7 mb 0.00 in0.0 mm 0.00 in0.0 mm 0.00 in0.0 mm
04:45 AM 48.0°F8.9°C 44.3°F6.8°C 87% Calm Calm -- 30.23 in1023.7 mb 0.00 in0.0 mm 0.00 in0.0 mm 0.00 in0.0 mm
04:50 AM 48.1°F8.9°C 44.4°F6.9°C 87% Calm Calm -- 30.23 in1023.7 mb 0.00 in0.0 mm 0.00 in0.0 mm 0.00 in0.0 mm
04:55 AM 48.2°F9.0°C 44.2°F6.8°C 86% Calm Calm -- 30.23 in1023.7 mb 0.00 in0.0 mm 0.00 in0.0 mm 0.00 in0.0 mm
05:00 AM 48.3°F9.1°C 44.3°F6.8°C 86% Calm Calm -- 30.23 in1023.7 mb 0.00 in0.0 mm 0.00 in0.0 mm 0.00 in0.0 mm
05:05 AM 48.3°F9.1°C 44.0°F6.7°C 85% Calm Calm -- 30.23 in1023.7 mb 0.00 in0.0 mm 0.00 in0.0 mm 0.00 in0.0 mm
05:10 AM 48.2°F9.0°C 43.9°F6.6°C 85% Calm Calm 2.0 mph3.2 kmh 30.23 in1023.7 mb 0.00 in0.0 mm 0.00 in0.0 mm 0.00 in0.0 mm
05:15 AM 47.9°F8.8°C 43.6°F6.4°C 85% 4.0 mph NW6.4 kmh NW 10.0 mph16.1 kmh 30.23 in1023.7 mb 0.00 in0.0 mm 0.00 in0.0 mm 0.00 in0.0 mm
05:20 AM 47.4°F8.6°C 43.1°F6.2°C 85% 6.0 mph NW9.7 kmh NW 10.0 mph16.1 kmh 30.23 in1023.7 mb 0.00 in0.0 mm 0.00 in0.0 mm 0.00 in0.0 mm
05:25 AM 46.9°F8.3°C 42.6°F5.9°C 85% 6.0 mph NW9.7 kmh NW 10.0 mph16.1 kmh 30.23 in1023.7 mb 0.00 in0.0 mm 0.00 in0.0 mm 0.00 in0.0 mm
05:30 AM 46.4°F8.0°C 42.4°F5.8°C 86% Calm Calm 7.0 mph11.3 kmh 30.23 in1023.7 mb 0.00 in0.0 mm 0.00 in0.0 mm 0.00 in0.0 mm
05:35 AM 46.2°F7.9°C 42.2°F5.7°C 86% Calm Calm 10.0 mph16.1 kmh 30.22 in1023.4 mb 0.00 in0.0 mm 0.00 in0.0 mm 0.00 in0.0 mm
05:40 AM 46.0°F7.8°C 42.0°F5.6°C 86% Calm Calm 9.0 mph14.5 kmh 30.22 in1023.4 mb 0.00 in0.0 mm 0.00 in0.0 mm 0.00 in0.0 mm
05:45 AM 45.8°F7.7°C 41.8°F5.4°C 86% 8.0 mph NW12.9 kmh NW 8.0 mph12.9 kmh 30.23 in1023.7 mb 0.00 in0.0 mm 0.00 in0.0 mm 0.00 in0.0 mm
05:50 AM 45.2°F7.3°C 41.2°F5.1°C 86% Calm Calm 13.0 mph20.9 kmh 30.23 in1023.7 mb 0.00 in0.0 mm 0.00 in0.0 mm 0.00 in0.0 mm
05:55 AM 44.6°F7.0°C 40.6°F4.8°C 86% 2.0 mph NW3.2 kmh NW 9.0 mph14.5 kmh 30.23 in1023.7 mb 0.00 in0.0 mm 0.00 in0.0 mm 0.00 in0.0 mm
06:00 AM 44.2°F6.8°C 40.5°F4.7°C 87% Calm Calm 9.0 mph14.5 kmh 30.22 in1023.4 mb 0.00 in0.0 mm 0.00 in0.0 mm 0.00 in0.0 mm
06:05 AM 43.8°F6.6°C 40.1°F4.5°C 87% 1.0 mph NW1.6 kmh NW 4.0 mph6.4 kmh 30.22 in1023.4 mb 0.00 in0.0 mm 0.00 in0.0 mm 0.00 in0.0 mm
06:10 AM 43.5°F6.4°C 39.8°F4.3°C 87% 1.0 mph NW1.6 kmh NW 4.0 mph6.4 kmh 30.22 in1023.4 mb 0.00 in0.0 mm 0.00 in0.0 mm 0.00 in0.0 mm
06:15 AM 43.2°F6.2°C 39.8°F4.3°C 88% Calm Calm 5.0 mph8.0 kmh 30.22 in1023.4 mb 0.00 in0.0 mm 0.00 in0.0 mm 0.00 in0.0 mm
06:20 AM 42.9°F6.1°C 39.5°F4.2°C 88% Calm Calm 3.0 mph4.8 kmh 30.22 in1023.4 mb 0.00 in0.0 mm 0.00 in0.0 mm 0.00 in0.0 mm
06:25 AM 42.7°F5.9°C 39.3°F4.1°C 88% Calm Calm 7.0 mph11.3 kmh 30.22 in1023.4 mb 0.00 in0.0 mm 0.00 in0.0 mm 0.00 in0.0 mm
06:30 AM 42.6°F5.9°C 39.5°F4.2°C 89% Calm Calm 4.0 mph6.4 kmh 30.22 in1023.4 mb 0.00 in0.0 mm 0.00 in0.0 mm 0.00 in0.0 mm
06:35 AM 42.6°F5.9°C 39.5°F4.2°C 89% Calm Calm 8.0 mph12.9 kmh 30.22 in1023.4 mb 0.00 in0.0 mm 0.00 in0.0 mm 0.00 in0.0 mm
06:40 AM 42.7°F5.9°C 39.6°F4.2°C 89% 5.0 mph NW8.0 kmh NW 5.0 mph8.0 kmh 30.22 in1023.4 mb 0.00 in0.0 mm 0.00 in0.0 mm 0.00 in0.0 mm
06:45 AM 42.7°F5.9°C 39.6°F4.2°C 89% Calm Calm 7.0 mph11.3 kmh 30.22 in1023.4 mb 0.00 in0.0 mm 0.00 in0.0 mm 0.00 in0.0 mm
06:50 AM 42.8°F6.0°C 40.0°F4.4°C 90% 4.0 mph NW6.4 kmh NW 5.0 mph8.0 kmh 30.22 in1023.4 mb 0.00 in0.0 mm 0.00 in0.0 mm 0.00 in0.0 mm
06:55 AM 43.0°F6.1°C 40.2°F4.6°C 90% Calm Calm 9.0 mph14.5 kmh 30.22 in1023.4 mb 0.00 in0.0 mm 0.00 in0.0 mm 0.00 in0.0 mm
07:00 AM 43.3°F6.3°C 40.2°F4.6°C 89% Calm Calm 8.0 mph12.9 kmh 30.22 in1023.4 mb 0.00 in0.0 mm 0.00 in0.0 mm 0.00 in0.0 mm
07:05 AM 43.1°F6.2°C 40.0°F4.4°C 89% 8.0 mph NW12.9 kmh NW 9.0 mph14.5 kmh 30.22 in1023.4 mb 0.00 in0.0 mm 0.00 in0.0 mm 0.00 in0.0 mm
07:10 AM 42.9°F6.1°C 39.8°F4.3°C 89% Calm Calm 11.0 mph17.7 kmh 30.22 in1023.4 mb 0.00 in0.0 mm 0.00 in0.0 mm 0.00 in0.0 mm
07:15 AM 42.5°F5.8°C 39.4°F4.1°C 89% Calm Calm 10.0 mph16.1 kmh 30.22 in1023.4 mb 0.00 in0.0 mm 0.00 in0.0 mm 0.00 in0.0 mm
07:20 AM 42.2°F5.7°C 38.9°F3.8°C 88% 10.0 mph NW16.1 kmh NW 13.0 mph20.9 kmh 30.22 in1023.4 mb 0.00 in0.0 mm 0.00 in0.0 mm 0.00 in0.0 mm
07:25 AM 41.9°F5.5°C 38.6°F3.7°C 88% 9.0 mph NNW14.5 kmh NNW 13.0 mph20.9 kmh 30.22 in1023.4 mb 0.00 in0.0 mm 0.00 in0.0 mm 0.00 in0.0 mm
07:30 AM 41.8°F5.4°C 38.7°F3.7°C 89% 5.0 mph NW8.0 kmh NW 12.0 mph19.3 kmh 30.22 in1023.4 mb 0.00 in0.0 mm 0.00 in0.0 mm 0.00 in0.0 mm
07:35 AM 41.9°F5.5°C 38.8°F3.8°C 89% 6.0 mph N9.7 kmh N 13.0 mph20.9 kmh 30.22 in1023.4 mb 0.00 in0.0 mm 0.00 in0.0 mm 0.00 in0.0 mm
07:40 AM 42.0°F5.6°C 38.9°F3.8°C 89% 6.0 mph NW9.7 kmh NW 13.0 mph20.9 kmh 30.23 in1023.7 mb 0.00 in0.0 mm 0.00 in0.0 mm 0.00 in0.0 mm
07:45 AM 42.1°F5.6°C 38.8°F3.8°C 88% 8.0 mph N12.9 kmh N 15.0 mph24.1 kmh 30.23 in1023.7 mb 0.00 in0.0 mm 0.00 in0.0 mm 0.00 in0.0 mm
07:50 AM 42.4°F5.8°C 39.3°F4.1°C 89% 8.0 mph NNW12.9 kmh NNW 13.0 mph20.9 kmh 30.23 in1023.7 mb 0.00 in0.0 mm 0.00 in0.0 mm 0.00 in0.0 mm
07:55 AM 42.6°F5.9°C 39.2°F4.0°C 88% 4.0 mph N6.4 kmh N 15.0 mph24.1 kmh 30.23 in1023.7 mb 0.00 in0.0 mm 0.00 in0.0 mm 0.00 in0.0 mm
08:00 AM 42.5°F5.8°C 39.2°F4.0°C 88% 12.0 mph NW19.3 kmh NW 14.0 mph22.5 kmh 30.23 in1023.7 mb 0.00 in0.0 mm 0.00 in0.0 mm 0.00 in0.0 mm
08:05 AM 42.6°F5.9°C 39.2°F4.0°C 88% 9.0 mph NNW14.5 kmh NNW 13.0 mph20.9 kmh 30.23 in1023.7 mb 0.00 in0.0 mm 0.00 in0.0 mm 0.00 in0.0 mm
08:10 AM 42.8°F6.0°C 39.7°F4.3°C 89% 8.0 mph NW12.9 kmh NW 14.0 mph22.5 kmh 30.23 in1023.7 mb 0.00 in0.0 mm 0.00 in0.0 mm 0.00 in0.0 mm
08:15 AM 43.2°F6.2°C 39.8°F4.3°C 88% 13.0 mph 20.9 kmh 14.0 mph22.5 kmh 30.23 in1023.7 mb 0.00 in0.0 mm 0.00 in0.0 mm 0.00 in0.0 mm
08:20 AM 43.6°F6.4°C 40.2°F4.6°C 88% 13.0 mph N20.9 kmh N 18.0 mph29.0 kmh 30.23 in1023.7 mb 0.00 in0.0 mm 0.00 in0.0 mm 0.00 in0.0 mm
08:25 AM 43.8°F6.6°C 40.4°F4.7°C 88% 9.0 mph N14.5 kmh N 18.0 mph29.0 kmh 30.23 in1023.7 mb 0.00 in0.0 mm 0.00 in0.0 mm 0.00 in0.0 mm
08:30 AM 44.0°F6.7°C 40.6°F4.8°C 88% 8.0 mph N12.9 kmh N 14.0 mph22.5 kmh 30.23 in1023.7 mb 0.00 in0.0 mm 0.00 in0.0 mm 0.00 in0.0 mm
08:35 AM 44.2°F6.8°C 40.8°F4.9°C 88% 11.0 mph NW17.7 kmh NW 16.0 mph25.7 kmh 30.23 in1023.7 mb 0.00 in0.0 mm 0.00 in0.0 mm 0.00 in0.0 mm
08:40 AM 44.5°F6.9°C 41.1°F5.1°C 88% 9.0 mph NW14.5 kmh NW 15.0 mph24.1 kmh 30.22 in1023.4 mb 0.00 in0.0 mm 0.00 in0.0 mm 0.00 in0.0 mm
08:45 AM 44.8°F7.1°C 41.4°F5.2°C 88% 11.0 mph NW17.7 kmh NW 14.0 mph22.5 kmh 30.22 in1023.4 mb 0.00 in0.0 mm 0.00 in0.0 mm 0.00 in0.0 mm
08:50 AM 45.1°F7.3°C 41.7°F5.4°C 88% 15.0 mph NW24.1 kmh NW 15.0 mph24.1 kmh 30.22 in1023.4 mb 0.00 in0.0 mm 0.00 in0.0 mm 0.00 in0.0 mm
08:55 AM 45.4°F7.4°C 42.0°F5.6°C 88% 8.0 mph NW12.9 kmh NW 15.0 mph24.1 kmh 30.22 in1023.4 mb 0.00 in0.0 mm 0.00 in0.0 mm 0.00 in0.0 mm
09:00 AM 45.6°F7.6°C 42.2°F5.7°C 88% 16.0 mph NNW25.7 kmh NNW 16.0 mph25.7 kmh 30.22 in1023.4 mb 0.00 in0.0 mm 0.00 in0.0 mm 0.00 in0.0 mm
09:05 AM 45.7°F7.6°C 42.0°F5.6°C 87% 9.0 mph NW14.5 kmh NW 16.0 mph25.7 kmh 30.22 in1023.4 mb 0.00 in0.0 mm 0.00 in0.0 mm 0.00 in0.0 mm
09:10 AM 46.0°F7.8°C 42.6°F5.9°C 88% 4.0 mph NW6.4 kmh NW 14.0 mph22.5 kmh 30.22 in1023.4 mb 0.00 in0.0 mm 0.00 in0.0 mm 0.00 in0.0 mm
09:15 AM 46.3°F7.9°C 42.6°F5.9°C 87% 7.0 mph NW11.3 kmh NW 15.0 mph24.1 kmh 30.22 in1023.4 mb 0.00 in0.0 mm 0.00 in0.0 mm 0.00 in0.0 mm
09:20 AM 46.7°F8.2°C 43.0°F6.1°C 87% 10.0 mph N16.1 kmh N 15.0 mph24.1 kmh 30.21 in1023.0 mb 0.00 in0.0 mm 0.00 in0.0 mm 0.00 in0.0 mm
09:25 AM 46.8°F8.2°C 42.8°F6.0°C 86% 4.0 mph N6.4 kmh N 13.0 mph20.9 kmh 30.22 in1023.4 mb 0.00 in0.0 mm 0.00 in0.0 mm 0.00 in0.0 mm
09:30 AM 47.1°F8.4°C 43.1°F6.2°C 86% 9.0 mph NNW14.5 kmh NNW 13.0 mph20.9 kmh 30.22 in1023.4 mb 0.00 in0.0 mm 0.00 in0.0 mm 0.00 in0.0 mm
09:35 AM 47.2°F8.4°C 43.2°F6.2°C 86% 6.0 mph NW9.7 kmh NW 15.0 mph24.1 kmh 30.22 in1023.4 mb 0.00 in0.0 mm 0.00 in0.0 mm 0.00 in0.0 mm
09:40 AM 47.6°F8.7°C 43.3°F6.3°C 85% 4.0 mph NW6.4 kmh NW 15.0 mph24.1 kmh 30.22 in1023.4 mb 0.00 in0.0 mm 0.00 in0.0 mm 0.00 in0.0 mm
09:45 AM 47.7°F8.7°C 43.1°F6.2°C 84% 9.0 mph N14.5 kmh N 16.0 mph25.7 kmh 30.22 in1023.4 mb 0.00 in0.0 mm 0.00 in0.0 mm 0.00 in0.0 mm
09:50 AM 47.9°F8.8°C 43.3°F6.3°C 84% 11.0 mph NW17.7 kmh NW 15.0 mph24.1 kmh 30.22 in1023.4 mb 0.00 in0.0 mm 0.00 in0.0 mm 0.00 in0.0 mm
09:55 AM 48.1°F8.9°C 43.1°F6.2°C 83% 11.0 mph NNW17.7 kmh NNW 18.0 mph29.0 kmh 30.22 in1023.4 mb 0.00 in0.0 mm 0.00 in0.0 mm 0.00 in0.0 mm
10:00 AM 48.3°F9.1°C 43.3°F6.3°C 83% 8.0 mph N12.9 kmh N 17.0 mph27.4 kmh 30.22 in1023.4 mb 0.00 in0.0 mm 0.00 in0.0 mm 0.00 in0.0 mm
10:05 AM 48.6°F9.2°C 43.3°F6.3°C 82% 9.0 mph NE14.5 kmh NE 22.0 mph35.4 kmh 30.22 in1023.4 mb 0.00 in0.0 mm 0.00 in0.0 mm 0.00 in0.0 mm
10:10 AM 48.7°F9.3°C 43.4°F6.3°C 82% 13.0 mph WNW20.9 kmh WNW 18.0 mph29.0 kmh 30.22 in1023.4 mb 0.00 in0.0 mm 0.00 in0.0 mm 0.00 in0.0 mm
10:15 AM 48.8°F9.3°C 43.5°F6.4°C 82% 10.0 mph NNE16.1 kmh NNE 17.0 mph27.4 kmh 30.21 in1023.0 mb 0.00 in0.0 mm 0.00 in0.0 mm 0.00 in0.0 mm
10:20 AM 49.0°F9.4°C 43.4°F6.3°C 81% 13.0 mph N20.9 kmh N 17.0 mph27.4 kmh 30.21 in1023.0 mb 0.00 in0.0 mm 0.00 in0.0 mm 0.00 in0.0 mm
10:25 AM 48.9°F9.4°C 43.3°F6.3°C 81% 12.0 mph NNW19.3 kmh NNW 17.0 mph27.4 kmh 30.21 in1023.0 mb 0.00 in0.0 mm 0.00 in0.0 mm 0.00 in0.0 mm
10:30 AM 49.2°F9.6°C 43.2°F6.2°C 80% 10.0 mph W16.1 kmh W 16.0 mph25.7 kmh 30.21 in1023.0 mb 0.00 in0.0 mm 0.00 in0.0 mm 0.00 in0.0 mm
10:35 AM 49.4°F9.7°C 43.4°F6.3°C 80% 10.0 mph 16.1 kmh 16.0 mph25.7 kmh 30.21 in1023.0 mb 0.00 in0.0 mm 0.00 in0.0 mm 0.00 in0.0 mm
10:40 AM 49.6°F9.8°C 43.6°F6.4°C 80% 12.0 mph N19.3 kmh N 15.0 mph24.1 kmh 30.21 in1023.0 mb 0.00 in0.0 mm 0.00 in0.0 mm 0.00 in0.0 mm
10:45 AM 49.9°F9.9°C 43.9°F6.6°C 80% 8.0 mph N12.9 kmh N 14.0 mph22.5 kmh 30.20 in1022.7 mb 0.00 in0.0 mm 0.00 in0.0 mm 0.00 in0.0 mm
10:50 AM 50.1°F10.1°C 43.8°F6.6°C 79% 12.0 mph N19.3 kmh N 14.0 mph22.5 kmh 30.20 in1022.7 mb 0.00 in0.0 mm 0.00 in0.0 mm 0.00 in0.0 mm
10:55 AM 50.6°F10.3°C 43.9°F6.6°C 78% 12.0 mph NW19.3 kmh NW 14.0 mph22.5 kmh 30.20 in1022.7 mb 0.00 in0.0 mm 0.00 in0.0 mm 0.00 in0.0 mm
11:00 AM 50.8°F10.4°C 44.1°F6.7°C 78% 11.0 mph NNW17.7 kmh NNW 14.0 mph22.5 kmh 30.20 in1022.7 mb 0.00 in0.0 mm 0.00 in0.0 mm 0.00 in0.0 mm
11:05 AM 51.4°F10.8°C 44.7°F7.1°C 78% 1.0 mph NW1.6 kmh NW 13.0 mph20.9 kmh 30.20 in1022.7 mb 0.00 in0.0 mm 0.00 in0.0 mm 0.00 in0.0 mm
11:10 AM 51.7°F10.9°C 44.3°F6.8°C 76% 9.0 mph NW14.5 kmh NW 12.0 mph19.3 kmh 30.20 in1022.7 mb 0.00 in0.0 mm 0.00 in0.0 mm 0.00 in0.0 mm
11:15 AM 51.9°F11.1°C 44.5°F6.9°C 76% 4.0 mph W6.4 kmh W 12.0 mph19.3 kmh 30.19 in1022.4 mb 0.00 in0.0 mm 0.00 in0.0 mm 0.00 in0.0 mm
11:20 AM 52.4°F11.3°C 45.4°F7.4°C 77% 5.0 mph N8.0 kmh N 9.0 mph14.5 kmh 30.19 in1022.4 mb 0.00 in0.0 mm 0.00 in0.0 mm 0.00 in0.0 mm
11:25 AM 52.7°F11.5°C 45.0°F7.2°C 75% 6.0 mph N9.7 kmh N 11.0 mph17.7 kmh 30.19 in1022.4 mb 0.00 in0.0 mm 0.00 in0.0 mm 0.00 in0.0 mm
11:30 AM 52.8°F11.6°C 45.0°F7.2°C 75% Calm Calm 9.0 mph14.5 kmh 30.19 in1022.4 mb 0.00 in0.0 mm 0.00 in0.0 mm 0.00 in0.0 mm
11:35 AM 53.5°F11.9°C 45.4°F7.4°C 74% 9.0 mph NW14.5 kmh NW 9.0 mph14.5 kmh 30.18 in1022.0 mb 0.00 in0.0 mm 0.00 in0.0 mm 0.00 in0.0 mm
11:40 AM 53.7°F12.1°C 45.2°F7.3°C 73% 5.0 mph NW8.0 kmh NW 12.0 mph19.3 kmh 30.18 in1022.0 mb 0.00 in0.0 mm 0.00 in0.0 mm 0.00 in0.0 mm
11:45 AM 54.0°F12.2°C 45.5°F7.5°C 73% 3.0 mph NW4.8 kmh NW 12.0 mph19.3 kmh 30.18 in1022.0 mb 0.00 in0.0 mm 0.00 in0.0 mm 0.00 in0.0 mm
11:50 AM 54.5°F12.5°C 46.0°F7.8°C 73% Calm Calm 10.0 mph16.1 kmh 30.18 in1022.0 mb 0.00 in0.0 mm 0.00 in0.0 mm 0.00 in0.0 mm
11:55 AM 54.8°F12.7°C 45.5°F7.5°C 71% 3.0 mph WNW4.8 kmh WNW 9.0 mph14.5 kmh 30.18 in1022.0 mb 0.00 in0.0 mm 0.00 in0.0 mm 0.00 in0.0 mm
12:00 PM 55.2°F12.9°C 45.5°F7.5°C 70% Calm Calm 9.0 mph14.5 kmh 30.17 in1021.7 mb 0.00 in0.0 mm 0.00 in0.0 mm 0.00 in0.0 mm
12:05 PM 54.9°F12.7°C 45.3°F7.4°C 70% Calm Calm 11.0 mph17.7 kmh 30.17 in1021.7 mb 0.00 in0.0 mm 0.00 in0.0 mm 0.00 in0.0 mm
12:10 PM 55.2°F12.9°C 45.5°F7.5°C 70% Calm Calm 1.0 mph1.6 kmh 30.17 in1021.7 mb 0.00 in0.0 mm 0.00 in0.0 mm 0.00 in0.0 mm
12:15 PM 55.7°F13.2°C 45.6°F7.6°C 69% Calm Calm 11.0 mph17.7 kmh 30.17 in1021.7 mb 0.00 in0.0 mm 0.00 in0.0 mm 0.00 in0.0 mm
12:20 PM 55.6°F13.1°C 45.2°F7.3°C 68% 2.0 mph NW3.2 kmh NW 12.0 mph19.3 kmh 30.17 in1021.7 mb 0.00 in0.0 mm 0.00 in0.0 mm 0.00 in0.0 mm
12:25 PM 55.9°F13.3°C 45.4°F7.4°C 68% Calm Calm 11.0 mph17.7 kmh 30.17 in1021.7 mb 0.00 in0.0 mm 0.00 in0.0 mm 0.00 in0.0 mm
12:30 PM 55.8°F13.2°C 45.3°F7.4°C 68% 1.0 mph NW1.6 kmh NW 12.0 mph19.3 kmh 30.17 in1021.7 mb 0.00 in0.0 mm 0.00 in0.0 mm 0.00 in0.0 mm
12:35 PM 56.1°F13.4°C 45.2°F7.3°C 67% 5.0 mph NW8.0 kmh NW 11.0 mph17.7 kmh 30.18 in1022.0 mb 0.00 in0.0 mm 0.00 in0.0 mm 0.00 in0.0 mm
12:40 PM 56.2°F13.4°C 45.7°F7.6°C 68% 10.0 mph N16.1 kmh N 10.0 mph16.1 kmh 30.17 in1021.7 mb 0.00 in0.0 mm 0.00 in0.0 mm 0.00 in0.0 mm
12:45 PM 55.9°F13.3°C 45.8°F7.7°C 69% Calm Calm 10.0 mph16.1 kmh 30.17 in1021.7 mb 0.00 in0.0 mm 0.00 in0.0 mm 0.00 in0.0 mm
12:50 PM 56.0°F13.3°C 45.5°F7.5°C 68% 8.0 mph NNE12.9 kmh NNE 12.0 mph19.3 kmh 30.17 in1021.7 mb 0.00 in0.0 mm 0.00 in0.0 mm 0.00 in0.0 mm
12:55 PM 56.4°F13.6°C 45.5°F7.5°C 67% 5.0 mph NW8.0 kmh NW 12.0 mph19.3 kmh 30.17 in1021.7 mb 0.00 in0.0 mm 0.00 in0.0 mm 0.00 in0.0 mm
01:00 PM 56.6°F13.7°C 45.7°F7.6°C 67% 2.0 mph NW3.2 kmh NW 9.0 mph14.5 kmh 30.17 in1021.7 mb 0.00 in0.0 mm 0.00 in0.0 mm 0.00 in0.0 mm
01:05 PM 56.8°F13.8°C 45.5°F7.5°C 66% 2.0 mph WSW3.2 kmh WSW 12.0 mph19.3 kmh 30.16 in1021.3 mb 0.00 in0.0 mm 0.00 in0.0 mm 0.00 in0.0 mm
01:10 PM 56.7°F13.7°C 45.4°F7.4°C 66% Calm Calm 13.0 mph20.9 kmh 30.16 in1021.3 mb 0.00 in0.0 mm 0.00 in0.0 mm 0.00 in0.0 mm
01:15 PM 56.9°F13.8°C 45.6°F7.6°C 66% Calm Calm 8.0 mph12.9 kmh 30.15 in1021.0 mb 0.00 in0.0 mm 0.00 in0.0 mm 0.00 in0.0 mm
01:20 PM 57.2°F14.0°C 45.5°F7.5°C 65% 2.0 mph NW3.2 kmh NW 9.0 mph14.5 kmh 30.15 in1021.0 mb 0.00 in0.0 mm 0.00 in0.0 mm 0.00 in0.0 mm
01:25 PM 57.5°F14.2°C 45.8°F7.7°C 65% Calm Calm 8.0 mph12.9 kmh 30.15 in1021.0 mb 0.00 in0.0 mm 0.00 in0.0 mm 0.00 in0.0 mm
01:30 PM 57.7°F14.3°C 45.6°F7.6°C 64% 4.0 mph NW6.4 kmh NW 10.0 mph16.1 kmh 30.15 in1021.0 mb 0.00 in0.0 mm 0.00 in0.0 mm 0.00 in0.0 mm
01:35 PM 57.8°F14.3°C 46.1°F7.8°C 65% Calm Calm 6.0 mph9.7 kmh 30.15 in1021.0 mb 0.00 in0.0 mm 0.00 in0.0 mm 0.00 in0.0 mm
01:40 PM 58.2°F14.6°C 46.4°F8.0°C 65% 2.0 mph NW3.2 kmh NW 4.0 mph6.4 kmh 30.14 in1020.7 mb 0.00 in0.0 mm 0.00 in0.0 mm 0.00 in0.0 mm
01:45 PM 58.5°F14.7°C 46.3°F7.9°C 64% Calm Calm 6.0 mph9.7 kmh 30.14 in1020.7 mb 0.00 in0.0 mm 0.00 in0.0 mm 0.00 in0.0 mm
01:50 PM 58.1°F14.5°C 45.5°F7.5°C 63% 8.0 mph NNW12.9 kmh NNW 11.0 mph17.7 kmh 30.15 in1021.0 mb 0.00 in0.0 mm 0.00 in0.0 mm 0.00 in0.0 mm
01:55 PM 57.5°F14.2°C 45.8°F7.7°C 65% 7.0 mph NW11.3 kmh NW 11.0 mph17.7 kmh 30.14 in1020.7 mb 0.00 in0.0 mm 0.00 in0.0 mm 0.00 in0.0 mm
02:00 PM 57.6°F14.2°C 46.3°F7.9°C 66% Calm Calm 9.0 mph14.5 kmh 30.14 in1020.7 mb 0.00 in0.0 mm 0.00 in0.0 mm 0.00 in0.0 mm
02:05 PM 58.1°F14.5°C 46.7°F8.2°C 66% Calm Calm 6.0 mph9.7 kmh 30.14 in1020.7 mb 0.00 in0.0 mm 0.00 in0.0 mm 0.00 in0.0 mm
02:10 PM 58.7°F14.8°C 46.5°F8.1°C 64% 4.0 mph NNW6.4 kmh NNW 5.0 mph8.0 kmh 30.14 in1020.7 mb 0.00 in0.0 mm 0.00 in0.0 mm 0.00 in0.0 mm
02:15 PM 58.7°F14.8°C 46.1°F7.8°C 63% 6.0 mph NNW9.7 kmh NNW 9.0 mph14.5 kmh 30.14 in1020.7 mb 0.00 in0.0 mm 0.00 in0.0 mm 0.00 in0.0 mm
02:20 PM 59.0°F15.0°C 47.2°F8.4°C 65% 1.0 mph WSW1.6 kmh WSW 6.0 mph9.7 kmh 30.13 in1020.3 mb 0.00 in0.0 mm 0.00 in0.0 mm 0.00 in0.0 mm
02:25 PM 59.4°F15.2°C 46.7°F8.2°C 63% Calm Calm 9.0 mph14.5 kmh 30.13 in1020.3 mb 0.00 in0.0 mm 0.00 in0.0 mm 0.00 in0.0 mm
02:30 PM 59.5°F15.3°C 47.7°F8.7°C 65% Calm Calm 1.0 mph1.6 kmh 30.13 in1020.3 mb 0.00 in0.0 mm 0.00 in0.0 mm 0.00 in0.0 mm
02:35 PM 59.9°F15.5°C 48.5°F9.2°C 66% Calm Calm 1.0 mph1.6 kmh 30.13 in1020.3 mb 0.00 in0.0 mm 0.00 in0.0 mm 0.00 in0.0 mm
02:40 PM 60.3°F15.7°C 48.8°F9.3°C 66% Calm Calm -- 30.13 in1020.3 mb 0.00 in0.0 mm 0.00 in0.0 mm 0.00 in0.0 mm
02:45 PM 60.6°F15.9°C 48.7°F9.3°C 65% 1.0 mph NW1.6 kmh NW 2.0 mph3.2 kmh 30.13 in1020.3 mb 0.00 in0.0 mm 0.00 in0.0 mm 0.00 in0.0 mm
02:50 PM 60.4°F15.8°C 48.5°F9.2°C 65% Calm Calm 4.0 mph6.4 kmh 30.12 in1020.0 mb 0.00 in0.0 mm 0.00 in0.0 mm 0.00 in0.0 mm
02:55 PM 60.1°F15.6°C 48.2°F9.0°C 65% Calm Calm 3.0 mph4.8 kmh 30.12 in1020.0 mb 0.00 in0.0 mm 0.00 in0.0 mm 0.00 in0.0 mm
03:00 PM 60.0°F15.6°C 49.0°F9.4°C 67% Calm Calm 3.0 mph4.8 kmh 30.12 in1020.0 mb 0.00 in0.0 mm 0.00 in0.0 mm 0.00 in0.0 mm
03:05 PM 60.2°F15.7°C 48.7°F9.3°C 66% 2.0 mph SW3.2 kmh SW 5.0 mph8.0 kmh 30.12 in1020.0 mb 0.00 in0.0 mm 0.00 in0.0 mm 0.00 in0.0 mm
03:10 PM 60.0°F15.6°C 47.7°F8.7°C 64% Calm Calm 7.0 mph11.3 kmh 30.12 in1020.0 mb 0.00 in0.0 mm 0.00 in0.0 mm 0.00 in0.0 mm
03:15 PM 59.9°F15.5°C 48.1°F8.9°C 65% 4.0 mph NW6.4 kmh NW 10.0 mph16.1 kmh 30.12 in1020.0 mb 0.00 in0.0 mm 0.00 in0.0 mm 0.00 in0.0 mm
03:20 PM 60.0°F15.6°C 48.1°F8.9°C 65% Calm Calm 6.0 mph9.7 kmh 30.12 in1020.0 mb 0.00 in0.0 mm 0.00 in0.0 mm 0.00 in0.0 mm
03:25 PM 59.8°F15.4°C 47.5°F8.6°C 64% 4.0 mph NW6.4 kmh NW 9.0 mph14.5 kmh 30.12 in1020.0 mb 0.00 in0.0 mm 0.00 in0.0 mm 0.00 in0.0 mm
03:30 PM 59.7°F15.4°C 47.9°F8.8°C 65% 2.0 mph SW3.2 kmh SW 9.0 mph14.5 kmh 30.12 in1020.0 mb 0.00 in0.0 mm 0.00 in0.0 mm 0.00 in0.0 mm
03:35 PM 59.9°F15.5°C 48.1°F8.9°C 65% 1.0 mph WSW1.6 kmh WSW 8.0 mph12.9 kmh 30.12 in1020.0 mb 0.00 in0.0 mm 0.00 in0.0 mm 0.00 in0.0 mm
03:40 PM 59.7°F15.4°C 47.9°F8.8°C 65% 2.0 mph NW3.2 kmh NW 7.0 mph11.3 kmh 30.12 in1020.0 mb 0.00 in0.0 mm 0.00 in0.0 mm 0.00 in0.0 mm
03:45 PM 59.7°F15.4°C 48.3°F9.1°C 66% 2.0 mph N3.2 kmh N 7.0 mph11.3 kmh 30.12 in1020.0 mb 0.00 in0.0 mm 0.00 in0.0 mm 0.00 in0.0 mm
03:50 PM 59.6°F15.3°C 48.2°F9.0°C 66% Calm Calm 8.0 mph12.9 kmh 30.12 in1020.0 mb 0.00 in0.0 mm 0.00 in0.0 mm 0.00 in0.0 mm
03:55 PM 59.7°F15.4°C 48.3°F9.1°C 66% 1.0 mph W1.6 kmh W 6.0 mph9.7 kmh 30.12 in1020.0 mb 0.00 in0.0 mm 0.00 in0.0 mm 0.00 in0.0 mm
04:00 PM 59.7°F15.4°C 48.3°F9.1°C 66% 1.0 mph WSW1.6 kmh WSW 7.0 mph11.3 kmh 30.12 in1020.0 mb 0.00 in0.0 mm 0.00 in0.0 mm 0.00 in0.0 mm
04:05 PM 59.7°F15.4°C 48.3°F9.1°C 66% 6.0 mph W9.7 kmh W 9.0 mph14.5 kmh 30.12 in1020.0 mb 0.00 in0.0 mm 0.00 in0.0 mm 0.00 in0.0 mm
04:10 PM 59.6°F15.3°C 48.6°F9.2°C 67% Calm Calm 7.0 mph11.3 kmh 30.12 in1020.0 mb 0.00 in0.0 mm 0.00 in0.0 mm 0.00 in0.0 mm
04:15 PM 59.5°F15.3°C 48.5°F9.2°C 67% Calm Calm 5.0 mph8.0 kmh 30.12 in1020.0 mb 0.00 in0.0 mm 0.00 in0.0 mm 0.00 in0.0 mm
04:20 PM 59.3°F15.2°C 48.7°F9.3°C 68% Calm Calm -- 30.12 in1020.0 mb 0.00 in0.0 mm 0.00 in0.0 mm 0.00 in0.0 mm
04:25 PM 59.1°F15.1°C 48.5°F9.2°C 68% 1.0 mph NW1.6 kmh NW 2.0 mph3.2 kmh 30.12 in1020.0 mb 0.00 in0.0 mm 0.00 in0.0 mm 0.00 in0.0 mm
04:30 PM 59.0°F15.0°C 48.8°F9.3°C 69% 1.0 mph WSW1.6 kmh WSW 7.0 mph11.3 kmh 30.12 in1020.0 mb 0.00 in0.0 mm 0.00 in0.0 mm 0.00 in0.0 mm
04:35 PM 58.8°F14.9°C 49.0°F9.4°C 70% Calm Calm 5.0 mph8.0 kmh 30.12 in1020.0 mb 0.00 in0.0 mm 0.00 in0.0 mm 0.00 in0.0 mm
04:40 PM 58.7°F14.8°C 48.9°F9.4°C 70% Calm Calm 1.0 mph1.6 kmh 30.12 in1020.0 mb 0.00 in0.0 mm 0.00 in0.0 mm 0.00 in0.0 mm
04:45 PM 58.6°F14.8°C 48.8°F9.3°C 70% 1.0 mph SSW1.6 kmh SSW 4.0 mph6.4 kmh 30.12 in1020.0 mb 0.00 in0.0 mm 0.00 in0.0 mm 0.00 in0.0 mm
04:50 PM 58.4°F14.7°C 48.6°F9.2°C 70% Calm Calm 7.0 mph11.3 kmh 30.12 in1020.0 mb 0.00 in0.0 mm 0.00 in0.0 mm 0.00 in0.0 mm
04:55 PM 58.2°F14.6°C 48.8°F9.3°C 71% Calm Calm 4.0 mph6.4 kmh 30.12 in1020.0 mb 0.00 in0.0 mm 0.00 in0.0 mm 0.00 in0.0 mm
05:00 PM 58.1°F14.5°C 48.7°F9.3°C 71% Calm Calm 3.0 mph4.8 kmh 30.11 in1019.6 mb 0.00 in0.0 mm 0.00 in0.0 mm 0.00 in0.0 mm
05:05 PM 58.0°F14.4°C 48.6°F9.2°C 71% Calm Calm 3.0 mph4.8 kmh 30.11 in1019.6 mb 0.00 in0.0 mm 0.00 in0.0 mm 0.00 in0.0 mm
05:10 PM 57.8°F14.3°C 48.8°F9.3°C 72% Calm Calm 3.0 mph4.8 kmh 30.11 in1019.6 mb 0.00 in0.0 mm 0.00 in0.0 mm 0.00 in0.0 mm
05:15 PM 57.6°F14.2°C 48.6°F9.2°C 72% Calm Calm 2.0 mph3.2 kmh 30.12 in1020.0 mb 0.00 in0.0 mm 0.00 in0.0 mm 0.00 in0.0 mm
05:20 PM 57.4°F14.1°C 48.8°F9.3°C 73% Calm Calm 4.0 mph6.4 kmh 30.12 in1020.0 mb 0.00 in0.0 mm 0.00 in0.0 mm 0.00 in0.0 mm
05:25 PM 57.3°F14.1°C 49.0°F9.4°C 74% 1.0 mph W1.6 kmh W 2.0 mph3.2 kmh 30.12 in1020.0 mb 0.00 in0.0 mm 0.00 in0.0 mm 0.00 in0.0 mm
05:30 PM 57.2°F14.0°C 48.9°F9.4°C 74% Calm Calm 2.0 mph3.2 kmh 30.12 in1020.0 mb 0.00 in0.0 mm 0.00 in0.0 mm 0.00 in0.0 mm
05:35 PM 57.0°F13.9°C 49.1°F9.5°C 75% Calm Calm 3.0 mph4.8 kmh 30.12 in1020.0 mb 0.00 in0.0 mm 0.00 in0.0 mm 0.00 in0.0 mm
05:40 PM 56.9°F13.8°C 49.4°F9.7°C 76% Calm Calm -- 30.12 in1020.0 mb 0.00 in0.0 mm 0.00 in0.0 mm 0.00 in0.0 mm
05:45 PM 56.7°F13.7°C 49.2°F9.6°C 76% Calm Calm 1.0 mph1.6 kmh 30.12 in1020.0 mb 0.00 in0.0 mm 0.00 in0.0 mm 0.00 in0.0 mm
05:50 PM 56.6°F13.7°C 49.4°F9.7°C 77% Calm Calm 1.0 mph1.6 kmh 30.12 in1020.0 mb 0.00 in0.0 mm 0.00 in0.0 mm 0.00 in0.0 mm
05:55 PM 56.4°F13.6°C 49.6°F9.8°C 78% Calm Calm 2.0 mph3.2 kmh 30.13 in1020.3 mb 0.00 in0.0 mm 0.00 in0.0 mm 0.00 in0.0 mm
06:00 PM 56.3°F13.5°C 49.5°F9.7°C 78% Calm Calm 2.0 mph3.2 kmh 30.12 in1020.0 mb 0.00 in0.0 mm 0.00 in0.0 mm 0.00 in0.0 mm
06:05 PM 56.1°F13.4°C 49.6°F9.8°C 79% Calm Calm 2.0 mph3.2 kmh 30.13 in1020.3 mb 0.00 in0.0 mm 0.00 in0.0 mm 0.00 in0.0 mm
06:10 PM 56.0°F13.3°C 49.5°F9.7°C 79% Calm Calm 1.0 mph1.6 kmh 30.13 in1020.3 mb 0.00 in0.0 mm 0.00 in0.0 mm 0.00 in0.0 mm
06:15 PM 55.8°F13.2°C 49.7°F9.8°C 80% Calm Calm 2.0 mph3.2 kmh 30.13 in1020.3 mb 0.00 in0.0 mm 0.00 in0.0 mm 0.00 in0.0 mm
06:20 PM 55.8°F13.2°C 50.0°F10.0°C 81% Calm Calm 6.0 mph9.7 kmh 30.13 in1020.3 mb 0.00 in0.0 mm 0.00 in0.0 mm 0.00 in0.0 mm
06:25 PM 55.6°F13.1°C 49.8°F9.9°C 81% Calm Calm 1.0 mph1.6 kmh 30.12 in1020.0 mb 0.00 in0.0 mm 0.00 in0.0 mm 0.00 in0.0 mm
06:30 PM 55.5°F13.1°C 49.7°F9.8°C 81% Calm Calm 2.0 mph3.2 kmh 30.12 in1020.0 mb 0.00 in0.0 mm 0.00 in0.0 mm 0.00 in0.0 mm
06:35 PM 55.3°F12.9°C 49.8°F9.9°C 82% Calm Calm 1.0 mph1.6 kmh 30.12 in1020.0 mb 0.00 in0.0 mm 0.00 in0.0 mm 0.00 in0.0 mm
06:40 PM 55.2°F12.9°C 49.8°F9.9°C 82% Calm Calm 3.0 mph4.8 kmh 30.13 in1020.3 mb 0.00 in0.0 mm 0.00 in0.0 mm 0.00 in0.0 mm
06:45 PM 55.1°F12.8°C 49.7°F9.8°C 82% Calm Calm -- 30.13 in1020.3 mb 0.00 in0.0 mm 0.00 in0.0 mm 0.00 in0.0 mm
06:50 PM 55.0°F12.8°C 49.9°F9.9°C 83% Calm Calm -- 30.13 in1020.3 mb 0.00 in0.0 mm 0.00 in0.0 mm 0.00 in0.0 mm
06:55 PM 55.0°F12.8°C 49.9°F9.9°C 83% Calm Calm -- 30.13 in1020.3 mb 0.00 in0.0 mm 0.00 in0.0 mm 0.00 in0.0 mm
07:00 PM 54.9°F12.7°C 49.8°F9.9°C 83% Calm Calm 2.0 mph3.2 kmh 30.13 in1020.3 mb 0.00 in0.0 mm 0.00 in0.0 mm 0.00 in0.0 mm
07:05 PM 54.9°F12.7°C 49.8°F9.9°C 83% Calm Calm 1.0 mph1.6 kmh 30.13 in1020.3 mb 0.00 in0.0 mm 0.00 in0.0 mm 0.00 in0.0 mm
07:10 PM 54.8°F12.7°C 49.7°F9.8°C 83% Calm Calm 1.0 mph1.6 kmh 30.13 in1020.3 mb 0.00 in0.0 mm 0.00 in0.0 mm 0.00 in0.0 mm
07:15 PM 54.2°F12.3°C 49.1°F9.5°C 83% Calm Calm 1.0 mph1.6 kmh 30.13 in1020.3 mb 0.00 in0.0 mm 0.00 in0.0 mm 0.00 in0.0 mm
07:20 PM 53.9°F12.2°C 49.1°F9.5°C 84% Calm Calm 1.0 mph1.6 kmh 30.13 in1020.3 mb 0.00 in0.0 mm 0.00 in0.0 mm 0.00 in0.0 mm
07:25 PM 53.7°F12.1°C 48.9°F9.4°C 84% Calm Calm 3.0 mph4.8 kmh 30.12 in1020.0 mb 0.00 in0.0 mm 0.00 in0.0 mm 0.00 in0.0 mm
07:30 PM 53.5°F11.9°C 49.1°F9.5°C 85% Calm Calm 1.0 mph1.6 kmh 30.13 in1020.3 mb 0.00 in0.0 mm 0.00 in0.0 mm 0.00 in0.0 mm
07:35 PM 53.4°F11.9°C 49.0°F9.4°C 85% Calm Calm 6.0 mph9.7 kmh 30.12 in1020.0 mb 0.00 in0.0 mm 0.00 in0.0 mm 0.00 in0.0 mm
07:40 PM 53.3°F11.8°C 48.9°F9.4°C 85% 5.0 mph NNW8.0 kmh NNW 9.0 mph14.5 kmh 30.12 in1020.0 mb 0.00 in0.0 mm 0.00 in0.0 mm 0.00 in0.0 mm
07:45 PM 53.2°F11.8°C 49.1°F9.5°C 86% Calm Calm 5.0 mph8.0 kmh 30.12 in1020.0 mb 0.00 in0.0 mm 0.00 in0.0 mm 0.00 in0.0 mm
07:50 PM 53.3°F11.8°C 49.2°F9.6°C 86% Calm Calm 5.0 mph8.0 kmh 30.12 in1020.0 mb 0.00 in0.0 mm 0.00 in0.0 mm 0.00 in0.0 mm
07:55 PM 53.5°F11.9°C 49.4°F9.7°C 86% Calm Calm 11.0 mph17.7 kmh 30.13 in1020.3 mb 0.00 in0.0 mm 0.00 in0.0 mm 0.00 in0.0 mm
08:00 PM 53.6°F12.0°C 49.1°F9.5°C 85% Calm Calm 2.0 mph3.2 kmh 30.13 in1020.3 mb 0.00 in0.0 mm 0.00 in0.0 mm 0.00 in0.0 mm
08:05 PM 53.8°F12.1°C 49.3°F9.6°C 85% Calm Calm 6.0 mph9.7 kmh 30.13 in1020.3 mb 0.00 in0.0 mm 0.00 in0.0 mm 0.00 in0.0 mm
08:10 PM 54.1°F12.3°C 49.3°F9.6°C 84% Calm Calm 8.0 mph12.9 kmh 30.13 in1020.3 mb 0.00 in0.0 mm 0.00 in0.0 mm 0.00 in0.0 mm
08:15 PM 54.2°F12.3°C 49.1°F9.5°C 83% Calm Calm 3.0 mph4.8 kmh 30.13 in1020.3 mb 0.00 in0.0 mm 0.00 in0.0 mm 0.00 in0.0 mm
08:20 PM 54.1°F12.3°C 48.7°F9.3°C 82% Calm Calm 14.0 mph22.5 kmh 30.13 in1020.3 mb 0.00 in0.0 mm 0.00 in0.0 mm 0.00 in0.0 mm
08:25 PM 53.8°F12.1°C 48.1°F8.9°C 81% 1.0 mph NW1.6 kmh NW 8.0 mph12.9 kmh 30.13 in1020.3 mb 0.00 in0.0 mm 0.00 in0.0 mm 0.00 in0.0 mm
08:30 PM 53.7°F12.1°C 47.6°F8.7°C 80% 6.0 mph NW9.7 kmh NW 11.0 mph17.7 kmh 30.13 in1020.3 mb 0.00 in0.0 mm 0.00 in0.0 mm 0.00 in0.0 mm
08:35 PM 53.6°F12.0°C 47.2°F8.4°C 79% Calm Calm 11.0 mph17.7 kmh 30.13 in1020.3 mb 0.00 in0.0 mm 0.00 in0.0 mm 0.00 in0.0 mm
08:40 PM 53.7°F12.1°C 47.3°F8.5°C 79% 1.0 mph NNW1.6 kmh NNW 11.0 mph17.7 kmh 30.13 in1020.3 mb 0.00 in0.0 mm 0.00 in0.0 mm 0.00 in0.0 mm
08:45 PM 54.2°F12.3°C 47.1°F8.4°C 77% Calm Calm 12.0 mph19.3 kmh 30.13 in1020.3 mb 0.00 in0.0 mm 0.00 in0.0 mm 0.00 in0.0 mm
08:50 PM 54.6°F12.6°C 46.8°F8.2°C 75% Calm Calm 9.0 mph14.5 kmh 30.14 in1020.7 mb 0.00 in0.0 mm 0.00 in0.0 mm 0.00 in0.0 mm
08:55 PM 54.8°F12.7°C 46.6°F8.1°C 74% Calm Calm 9.0 mph14.5 kmh 30.14 in1020.7 mb 0.00 in0.0 mm 0.00 in0.0 mm 0.00 in0.0 mm
09:00 PM 55.1°F12.8°C 46.2°F7.9°C 72% Calm Calm 9.0 mph14.5 kmh 30.14 in1020.7 mb 0.00 in0.0 mm 0.00 in0.0 mm 0.00 in0.0 mm
09:05 PM 55.8°F13.2°C 45.7°F7.6°C 69% Calm Calm 8.0 mph12.9 kmh 30.14 in1020.7 mb 0.00 in0.0 mm 0.00 in0.0 mm 0.00 in0.0 mm
09:10 PM 56.1°F13.4°C 45.6°F7.6°C 68% Calm Calm 8.0 mph12.9 kmh 30.14 in1020.7 mb 0.00 in0.0 mm 0.00 in0.0 mm 0.00 in0.0 mm
09:15 PM 56.2°F13.4°C 44.5°F6.9°C 65% Calm Calm 9.0 mph14.5 kmh 30.14 in1020.7 mb 0.00 in0.0 mm 0.00 in0.0 mm 0.00 in0.0 mm
09:20 PM 56.4°F13.6°C 44.3°F6.8°C 64% Calm Calm 14.0 mph22.5 kmh 30.14 in1020.7 mb 0.00 in0.0 mm 0.00 in0.0 mm 0.00 in0.0 mm
09:25 PM 56.5°F13.6°C 44.0°F6.7°C 63% Calm Calm 6.0 mph9.7 kmh 30.14 in1020.7 mb 0.00 in0.0 mm 0.00 in0.0 mm 0.00 in0.0 mm
09:30 PM 56.2°F13.4°C 43.3°F6.3°C 62% Calm Calm 8.0 mph12.9 kmh 30.14 in1020.7 mb 0.00 in0.0 mm 0.00 in0.0 mm 0.00 in0.0 mm
09:35 PM 56.1°F13.4°C 42.8°F6.0°C 61% Calm Calm 9.0 mph14.5 kmh 30.15 in1021.0 mb 0.00 in0.0 mm 0.00 in0.0 mm 0.00 in0.0 mm
09:40 PM 55.9°F13.3°C 42.6°F5.9°C 61% 4.0 mph NNW6.4 kmh NNW 13.0 mph20.9 kmh 30.14 in1020.7 mb 0.00 in0.0 mm 0.00 in0.0 mm 0.00 in0.0 mm
09:45 PM 55.8°F13.2°C 42.5°F5.8°C 61% Calm Calm 9.0 mph14.5 kmh 30.14 in1020.7 mb 0.00 in0.0 mm 0.00 in0.0 mm 0.00 in0.0 mm
09:50 PM 55.9°F13.3°C 42.2°F5.7°C 60% Calm Calm 9.0 mph14.5 kmh 30.15 in1021.0 mb 0.00 in0.0 mm 0.00 in0.0 mm 0.00 in0.0 mm
09:55 PM 55.7°F13.2°C 42.0°F5.6°C 60% 3.0 mph N4.8 kmh N 8.0 mph12.9 kmh 30.15 in1021.0 mb 0.00 in0.0 mm 0.00 in0.0 mm 0.00 in0.0 mm
10:00 PM 55.3°F12.9°C 41.6°F5.3°C 60% 2.0 mph N3.2 kmh N 9.0 mph14.5 kmh 30.16 in1021.3 mb 0.00 in0.0 mm 0.00 in0.0 mm 0.00 in0.0 mm
10:05 PM 55.2°F12.9°C 41.1°F5.1°C 59% 10.0 mph N16.1 kmh N 14.0 mph22.5 kmh 30.15 in1021.0 mb 0.00 in0.0 mm 0.00 in0.0 mm 0.00 in0.0 mm
10:10 PM 55.4°F13.0°C 40.4°F4.7°C 57% 9.0 mph NNW14.5 kmh NNW 13.0 mph20.9 kmh 30.15 in1021.0 mb 0.00 in0.0 mm 0.00 in0.0 mm 0.00 in0.0 mm
10:15 PM 55.4°F13.0°C 39.9°F4.4°C 56% 6.0 mph N9.7 kmh N 15.0 mph24.1 kmh 30.15 in1021.0 mb 0.00 in0.0 mm 0.00 in0.0 mm 0.00 in0.0 mm
10:20 PM 55.5°F13.1°C 40.0°F4.4°C 56% 2.0 mph NW3.2 kmh NW 15.0 mph24.1 kmh 30.15 in1021.0 mb 0.00 in0.0 mm 0.00 in0.0 mm 0.00 in0.0 mm
10:25 PM 55.5°F13.1°C 39.5°F4.2°C 55% 8.0 mph NW12.9 kmh NW 13.0 mph20.9 kmh 30.15 in1021.0 mb 0.00 in0.0 mm 0.00 in0.0 mm 0.00 in0.0 mm
10:30 PM 55.4°F13.0°C 39.0°F3.9°C 54% 4.0 mph 6.4 kmh 13.0 mph20.9 kmh 30.15 in1021.0 mb 0.00 in0.0 mm 0.00 in0.0 mm 0.00 in0.0 mm
10:35 PM 55.8°F13.2°C 38.9°F3.8°C 53% 14.0 mph 22.5 kmh 14.0 mph22.5 kmh 30.15 in1021.0 mb 0.00 in0.0 mm 0.00 in0.0 mm 0.00 in0.0 mm
10:40 PM 55.9°F13.3°C 39.0°F3.9°C 53% Calm Calm 14.0 mph22.5 kmh 30.15 in1021.0 mb 0.00 in0.0 mm 0.00 in0.0 mm 0.00 in0.0 mm
10:45 PM 55.7°F13.2°C 39.3°F4.1°C 54% Calm Calm 6.0 mph9.7 kmh 30.15 in1021.0 mb 0.00 in0.0 mm 0.00 in0.0 mm 0.00 in0.0 mm
10:50 PM 55.1°F12.8°C 39.2°F4.0°C 55% Calm Calm 9.0 mph14.5 kmh 30.16 in1021.3 mb 0.00 in0.0 mm 0.00 in0.0 mm 0.00 in0.0 mm
10:55 PM 54.8°F12.7°C 38.9°F3.8°C 55% Calm Calm 5.0 mph8.0 kmh 30.16 in1021.3 mb 0.00 in0.0 mm 0.00 in0.0 mm 0.00 in0.0 mm
11:00 PM 54.4°F12.4°C 39.0°F3.9°C 56% Calm Calm 3.0 mph4.8 kmh 30.16 in1021.3 mb 0.00 in0.0 mm 0.00 in0.0 mm 0.00 in0.0 mm
11:05 PM 54.1°F12.3°C 39.2°F4.0°C 57% 6.0 mph NNW9.7 kmh NNW 10.0 mph16.1 kmh 30.16 in1021.3 mb 0.00 in0.0 mm 0.00 in0.0 mm 0.00 in0.0 mm
11:10 PM 53.6°F12.0°C 39.1°F3.9°C 58% 2.0 mph NNW3.2 kmh NNW 12.0 mph19.3 kmh 30.16 in1021.3 mb 0.00 in0.0 mm 0.00 in0.0 mm 0.00 in0.0 mm
11:15 PM 53.4°F11.9°C 38.9°F3.8°C 58% Calm Calm 10.0 mph16.1 kmh 30.15 in1021.0 mb 0.00 in0.0 mm 0.00 in0.0 mm 0.00 in0.0 mm
11:20 PM 53.2°F11.8°C 38.8°F3.8°C 58% Calm Calm 11.0 mph17.7 kmh 30.15 in1021.0 mb 0.00 in0.0 mm 0.00 in0.0 mm 0.00 in0.0 mm
11:25 PM 52.8°F11.6°C 38.8°F3.8°C 59% 9.0 mph NW14.5 kmh NW 11.0 mph17.7 kmh 30.15 in1021.0 mb 0.00 in0.0 mm 0.00 in0.0 mm 0.00 in0.0 mm
11:30 PM 52.6°F11.4°C 38.6°F3.7°C 59% 9.0 mph NW14.5 kmh NW 11.0 mph17.7 kmh 30.16 in1021.3 mb 0.00 in0.0 mm 0.00 in0.0 mm 0.00 in0.0 mm
11:35 PM 52.6°F11.4°C 38.6°F3.7°C 59% Calm Calm 13.0 mph20.9 kmh 30.16 in1021.3 mb 0.00 in0.0 mm 0.00 in0.0 mm 0.00 in0.0 mm
11:40 PM 52.8°F11.6°C 38.8°F3.8°C 59% 10.0 mph NW16.1 kmh NW 10.0 mph16.1 kmh 30.16 in1021.3 mb 0.00 in0.0 mm 0.00 in0.0 mm 0.00 in0.0 mm
11:45 PM 53.0°F11.7°C 38.6°F3.7°C 58% Calm Calm 10.0 mph16.1 kmh 30.16 in1021.3 mb 0.00 in0.0 mm 0.00 in0.0 mm 0.00 in0.0 mm
11:50 PM 53.2°F11.8°C 38.8°F3.8°C 58% Calm Calm 6.0 mph9.7 kmh 30.17 in1021.7 mb 0.00 in0.0 mm 0.00 in0.0 mm 0.00 in0.0 mm
11:55 PM 53.4°F11.9°C 38.5°F3.6°C 57% Calm Calm 9.0 mph14.5 kmh 30.16 in1021.3 mb 0.00 in0.0 mm 0.00 in0.0 mm 0.00 in0.0 mm